Time;durP1;ratioP1;P1;durP2;ratioP2;P2;SDS_P1;SDS_P2;PMS_P1;PMS_P2;Temp;Humidity;BMP_temperature;BMP_pressure;BME280_temperature;BME280_humidity;BME280_pressure;Samples;Min_cycle;Max_cycle;Signal;HPM_P1;HPM_P2
2023/10/07 00:02:30;;;;;;;1.00;0.73;;;19.30;61.70;;;;;;6188417;23;20172;-90
2023/10/07 00:05:00;;;;;;;1.63;1.47;;;19.20;61.70;;;;;;6215627;23;20540;-90
2023/10/07 00:07:31;;;;;;;0.63;0.50;;;19.10;61.80;;;;;;6215305;23;20194;-90
2023/10/07 00:10:04;;;;;;;0.40;0.40;;;19.10;61.90;;;;;;6214293;23;20164;-90
2023/10/07 00:12:36;;;;;;;0.63;0.43;;;19.10;62.00;;;;;;6216436;23;20215;-88
2023/10/07 00:15:11;;;;;;;0.60;0.60;;;19.00;61.80;;;;;;6214624;23;20171;-90
2023/10/07 00:17:42;;;;;;;0.40;0.40;;;19.00;61.60;;;;;;6216616;23;20158;-90
2023/10/07 00:20:12;;;;;;;0.50;0.50;;;19.00;61.60;;;;;;6216087;23;20166;-92
2023/10/07 00:22:47;;;;;;;0.50;0.50;;;19.00;62.00;;;;;;6164981;23;20205;-91
2023/10/07 00:25:19;;;;;;;0.70;0.70;;;18.90;62.00;;;;;;6215599;23;20825;-90
2023/10/07 00:27:49;;;;;;;7.83;1.80;;;18.90;62.30;;;;;;6216639;23;20880;-89
2023/10/07 00:30:22;;;;;;;4.23;1.37;;;18.80;62.70;;;;;;6190712;23;20683;-90
2023/10/07 00:32:51;;;;;;;1.03;0.90;;;18.80;63.10;;;;;;6216959;23;20601;-90
2023/10/07 00:35:20;;;;;;;2.20;0.77;;;18.70;63.00;;;;;;6190261;23;20497;-90
2023/10/07 00:37:49;;;;;;;1.13;0.93;;;18.70;63.10;;;;;;6193488;23;20171;-91
2023/10/07 00:40:30;;;;;;;5.27;1.20;;;18.70;62.80;;;;;;6231457;23;20167;-89
2023/10/07 00:43:07;;;;;;;3.10;0.73;;;18.70;62.70;;;;;;6237842;23;20186;-90
2023/10/07 00:45:39;;;;;;;0.67;0.67;;;18.70;63.40;;;;;;6239654;23;20225;-89
2023/10/07 00:48:11;;;;;;;1.23;1.00;;;18.70;63.40;;;;;;6238431;23;20187;-90
2023/10/07 00:50:42;;;;;;;1.53;1.43;;;18.70;63.80;;;;;;6241279;23;20151;-90
2023/10/07 00:53:12;;;;;;;0.60;0.60;;;18.60;64.00;;;;;;6212094;23;20219;-90
2023/10/07 00:55:41;;;;;;;0.97;0.87;;;18.60;64.10;;;;;;6238367;23;20147;-91
2023/10/07 00:58:19;;;;;;;1.33;1.17;;;18.50;64.10;;;;;;6237228;23;20168;-90
2023/10/07 01:00:49;;;;;;;2.53;1.73;;;18.50;64.50;;;;;;6238013;23;20159;-91
2023/10/07 01:03:22;;;;;;;1.83;1.70;;;18.40;64.30;;;;;;6218801;23;20175;-90
2023/10/07 01:06:09;;;;;;;0.87;0.87;;;18.40;64.30;;;;;;6191197;23;20187;-91
2023/10/07 01:08:44;;;;;;;3.90;1.63;;;18.40;64.40;;;;;;6217181;23;20705;-91
2023/10/07 01:11:23;;;;;;;0.60;0.60;;;18.40;64.30;;;;;;6216714;23;20159;-90
2023/10/07 01:13:56;;;;;;;1.47;0.73;;;18.40;64.10;;;;;;6216460;23;20162;-90
2023/10/07 01:16:34;;;;;;;0.37;0.37;;;18.30;64.10;;;;;;6189861;23;20194;-90
2023/10/07 01:19:18;;;;;;;4.00;1.53;;;18.40;64.30;;;;;;6189843;23;20485;-88
2023/10/07 01:21:54;;;;;;;0.63;0.60;;;18.30;64.30;;;;;;6215879;23;20189;-89
2023/10/07 01:27:18;;;;;;;0.80;0.80;;;18.30;65.00;;;;;;6209829;23;20202;-91
2023/10/07 01:29:50;;;;;;;3.70;1.47;;;18.30;65.20;;;;;;6213338;23;20246;-90
2023/10/07 01:32:19;;;;;;;4.87;1.30;;;18.20;65.40;;;;;;6188461;23;20532;-89
2023/10/07 01:34:52;;;;;;;2.23;1.37;;;18.20;65.20;;;;;;6187917;23;20173;-88
2023/10/07 01:37:22;;;;;;;1.87;1.67;;;18.20;65.30;;;;;;6214148;23;20609;-90
2023/10/07 01:39:53;;;;;;;2.27;0.93;;;18.20;65.30;;;;;;6213565;23;20644;-88
2023/10/07 01:42:26;;;;;;;0.40;0.40;;;18.20;65.40;;;;;;6213508;23;20166;-88
2023/10/07 01:45:08;;;;;;;1.50;0.93;;;18.20;65.50;;;;;;6214344;23;20160;-89
2023/10/07 01:47:39;;;;;;;0.97;0.90;;;18.10;65.60;;;;;;6215593;23;20203;-90
2023/10/07 01:50:12;;;;;;;1.33;1.00;;;18.10;65.60;;;;;;6214119;23;20164;-90
2023/10/07 01:52:45;;;;;;;0.30;0.30;;;18.10;65.60;;;;;;6215295;23;20155;-90
2023/10/07 01:55:16;;;;;;;0.73;0.73;;;18.00;65.60;;;;;;6214683;23;20234;-89
2023/10/07 01:57:45;;;;;;;1.13;1.00;;;18.10;65.80;;;;;;6212812;23;20478;-89
2023/10/07 02:00:34;;;;;;;0.40;0.40;;;18.00;66.00;;;;;;6213821;23;20167;-91
2023/10/07 02:03:04;;;;;;;2.10;1.17;;;18.00;66.20;;;;;;6216273;23;20213;-90
2023/10/07 02:05:40;;;;;;;0.33;0.33;;;18.00;65.80;;;;;;6214836;23;20245;-87
2023/10/07 02:08:14;;;;;;;0.33;0.33;;;18.10;65.60;;;;;;6214916;23;20152;-90
2023/10/07 02:10:45;;;;;;;1.50;1.33;;;18.00;65.30;;;;;;6214858;23;20242;-89
2023/10/07 02:13:19;;;;;;;0.97;0.83;;;18.10;66.20;;;;;;6214288;23;20539;-88
2023/10/07 02:15:48;;;;;;;2.17;1.03;;;18.10;65.20;;;;;;6214145;23;20209;-89
2023/10/07 02:18:17;;;;;;;0.70;0.70;;;18.10;65.00;;;;;;6214189;23;20171;-90
2023/10/07 02:20:52;;;;;;;1.70;0.97;;;18.10;64.90;;;;;;6187317;23;20170;-89
2023/10/07 02:23:35;;;;;;;0.50;0.47;;;18.10;64.90;;;;;;6189881;23;20159;-90
2023/10/07 02:26:06;;;;;;;0.50;0.50;;;18.10;65.00;;;;;;6212678;23;20190;-90
2023/10/07 02:28:36;;;;;;;0.30;0.30;;;18.10;64.80;;;;;;6213277;23;20159;-89
2023/10/07 02:31:07;;;;;;;0.83;0.70;;;18.00;64.70;;;;;;6213655;23;20538;-91
2023/10/07 02:33:42;;;;;;;0.40;0.40;;;18.00;64.60;;;;;;6190156;23;20504;-90
2023/10/07 02:36:13;;;;;;;0.30;0.30;;;18.00;64.60;;;;;;6214193;23;20220;-89
2023/10/07 02:38:43;;;;;;;0.40;0.40;;;18.00;64.50;;;;;;6213786;23;20155;-88
2023/10/07 02:41:17;;;;;;;0.30;0.30;;;18.10;64.40;;;;;;6213308;23;20190;-90
2023/10/07 02:43:48;;;;;;;0.40;0.40;;;18.00;64.40;;;;;;6214925;23;20154;-91
2023/10/07 02:49:09;;;;;;;1.33;0.50;;;18.00;64.40;;;;;;6210733;23;20191;-89
2023/10/07 02:51:45;;;;;;;0.50;0.50;;;18.10;64.40;;;;;;6188761;23;20210;-90
2023/10/07 02:54:19;;;;;;;1.87;0.53;;;18.00;64.40;;;;;;6214456;23;20159;-89
2023/10/07 02:56:55;;;;;;;0.67;0.60;;;18.00;64.40;;;;;;6213569;23;20218;-90
2023/10/07 02:59:27;;;;;;;0.43;0.40;;;18.10;64.50;;;;;;6214255;23;20166;-91
2023/10/07 03:04:42;;;;;;;0.57;0.50;;;18.00;64.50;;;;;;6190290;23;20845;-90
2023/10/07 03:07:16;;;;;;;0.57;0.57;;;18.00;64.60;;;;;;6213924;23;20197;-89
2023/10/07 03:10:04;;;;;;;0.87;0.77;;;18.00;64.60;;;;;;6214593;23;20155;-90
2023/10/07 03:12:36;;;;;;;3.70;1.53;;;18.00;65.20;;;;;;6214262;23;20238;-93
2023/10/07 03:15:20;;;;;;;0.97;0.83;;;18.00;65.80;;;;;;6213230;23;20162;-90
2023/10/07 03:17:50;;;;;;;0.70;0.63;;;17.90;65.60;;;;;;6214851;23;20167;-91
2023/10/07 03:20:28;;;;;;;0.63;0.63;;;17.90;65.40;;;;;;6188403;23;20257;-90
2023/10/07 03:23:14;;;;;;;1.20;1.03;;;17.90;65.40;;;;;;6214045;23;20179;-90
2023/10/07 03:26:05;;;;;;;0.70;0.70;;;17.90;65.40;;;;;;6213369;23;20163;-90
2023/10/07 03:28:37;;;;;;;0.50;0.50;;;17.90;65.60;;;;;;6214546;23;20171;-91
2023/10/07 03:31:10;;;;;;;1.33;1.07;;;17.80;66.10;;;;;;6212471;23;20178;-91
2023/10/07 03:33:48;;;;;;;1.73;1.20;;;17.80;66.10;;;;;;6213938;23;20164;-88
2023/10/07 03:36:41;;;;;;;0.40;0.40;;;17.80;66.00;;;;;;6188299;23;20163;-89
2023/10/07 03:39:23;;;;;;;0.63;0.63;;;17.80;65.80;;;;;;6215816;23;20241;-90
2023/10/07 03:41:59;;;;;;;1.50;0.63;;;17.80;65.80;;;;;;6215169;23;20234;-90
2023/10/07 03:44:31;;;;;;;1.03;0.60;;;17.70;65.70;;;;;;6214213;23;20166;-91
2023/10/07 03:47:00;;;;;;;1.70;0.80;;;17.70;65.70;;;;;;6189133;23;20408;-91
2023/10/07 03:49:33;;;;;;;0.30;0.30;;;17.70;65.70;;;;;;6215871;23;20573;-90
2023/10/07 03:52:07;;;;;;;0.67;0.67;;;17.70;65.60;;;;;;6214388;23;20170;-91
2023/10/07 03:54:40;;;;;;;0.30;0.30;;;17.70;65.60;;;;;;6216118;23;20163;-90
2023/10/07 03:57:10;;;;;;;0.40;0.40;;;17.70;65.60;;;;;;6189578;23;20159;-90
2023/10/07 03:59:40;;;;;;;0.20;0.20;;;17.70;65.70;;;;;;6216996;23;20167;-90
2023/10/07 04:02:29;;;;;;;3.50;1.63;;;17.70;65.80;;;;;;6215698;23;20641;-91
2023/10/07 04:05:09;;;;;;;1.87;0.70;;;17.60;65.80;;;;;;6214540;23;20227;-89
2023/10/07 04:07:39;;;;;;;0.63;0.63;;;17.60;65.70;;;;;;6216370;23;20190;-90
2023/10/07 04:10:21;;;;;;;0.90;0.70;;;17.60;65.70;;;;;;6214120;23;20167;-90
2023/10/07 04:12:56;;;;;;;1.03;0.83;;;17.60;65.70;;;;;;6192184;23;20191;-89
2023/10/07 04:15:30;;;;;;;0.30;0.30;;;17.50;66.30;;;;;;6216332;23;20155;-90
2023/10/07 04:18:02;;;;;;;0.60;0.60;;;17.50;66.70;;;;;;6215741;23;20163;-90
2023/10/07 04:20:50;;;;;;;0.57;0.57;;;17.50;66.40;;;;;;6212497;23;20699;-90
2023/10/07 04:23:24;;;;;;;0.70;0.70;;;17.40;66.30;;;;;;6214694;23;20155;-90
2023/10/07 04:25:56;;;;;;;2.40;1.30;;;17.40;66.10;;;;;;6213054;23;20243;-90
2023/10/07 04:28:26;;;;;;;0.70;0.60;;;17.40;66.20;;;;;;6212250;23;20444;-89
2023/10/07 04:30:56;;;;;;;0.63;0.53;;;17.40;66.40;;;;;;6213981;23;20159;-89
2023/10/07 04:33:32;;;;;;;0.60;0.60;;;17.30;66.30;;;;;;6214715;23;20163;-90
2023/10/07 04:36:04;;;;;;;0.97;0.57;;;17.30;66.70;;;;;;6214731;23;20169;-89
2023/10/07 04:41:32;;;;;;;1.80;1.03;;;17.30;66.60;;;;;;6214797;23;20213;-87
2023/10/07 04:43:59;;;;;;;0.67;0.67;;;17.20;66.40;;;;;;6212177;23;20170;-88
2023/10/07 04:46:30;;;;;;;0.60;0.60;;;17.20;66.40;;;;;;6214677;23;20182;-90
2023/10/07 04:49:00;;;;;;;0.47;0.47;;;17.20;66.30;;;;;;6215032;23;20191;-90
2023/10/07 04:54:21;;;;;;;0.90;0.90;;;17.20;66.60;;;;;;6206341;23;20177;-91
2023/10/07 04:56:58;;;;;;;0.57;0.53;;;17.10;66.50;;;;;;6214834;23;20168;-89
2023/10/07 04:59:27;;;;;;;1.80;0.97;;;17.10;66.70;;;;;;6214836;23;20234;-90
2023/10/07 05:02:01;;;;;;;1.60;0.77;;;17.10;66.70;;;;;;6213919;23;20179;-92
2023/10/07 05:04:32;;;;;;;0.60;0.50;;;17.10;66.60;;;;;;6214536;23;20163;-90
2023/10/07 05:07:00;;;;;;;0.40;0.40;;;17.10;66.50;;;;;;6188264;23;20652;-90
2023/10/07 05:09:29;;;;;;;2.17;0.83;;;17.10;66.40;;;;;;6215223;23;20171;-93
2023/10/07 05:11:57;;;;;;;1.07;0.80;;;17.10;66.30;;;;;;6215026;23;20171;-88
2023/10/07 05:14:26;;;;;;;0.47;0.47;;;17.20;66.30;;;;;;6216002;23;20617;-89
2023/10/07 05:16:58;;;;;;;0.43;0.43;;;17.20;66.30;;;;;;6189955;23;20178;-90
2023/10/07 05:19:30;;;;;;;1.77;1.03;;;17.20;66.40;;;;;;6215784;23;20160;-88
2023/10/07 05:22:12;;;;;;;0.67;0.67;;;17.20;66.40;;;;;;6214853;23;20214;-89
2023/10/07 05:24:41;;;;;;;2.77;0.57;;;17.20;66.30;;;;;;6211920;23;20164;-90
2023/10/07 05:27:11;;;;;;;2.27;1.13;;;17.20;66.30;;;;;;6216218;23;20199;-88
2023/10/07 05:29:40;;;;;;;0.97;0.80;;;17.30;66.30;;;;;;6188799;23;20543;-92
2023/10/07 05:32:17;;;;;;;0.70;0.70;;;17.30;66.20;;;;;;6217397;23;20157;-91
2023/10/07 05:34:48;;;;;;;0.93;0.83;;;17.30;66.20;;;;;;6215463;23;20525;-88
2023/10/07 05:37:19;;;;;;;0.77;0.73;;;17.30;66.10;;;;;;6213355;23;20168;-87
2023/10/07 05:39:48;;;;;;;0.70;0.70;;;17.30;66.30;;;;;;6212216;23;20174;-88
2023/10/07 05:42:16;;;;;;;2.53;0.90;;;17.40;66.70;;;;;;6215237;23;20163;-90
2023/10/07 05:44:45;;;;;;;0.93;0.93;;;17.40;67.00;;;;;;6215737;23;20176;-86
2023/10/07 05:47:13;;;;;;;2.17;1.77;;;17.40;67.10;;;;;;6186232;23;20171;-81
2023/10/07 05:49:42;;;;;;;0.90;0.90;;;17.40;67.50;;;;;;6183024;23;20649;-87
2023/10/07 05:52:12;;;;;;;1.90;1.07;;;17.40;67.70;;;;;;6213662;23;20195;-89
2023/10/07 05:54:40;;;;;;;1.73;1.60;;;17.50;68.60;;;;;;6216422;23;20160;-88
2023/10/07 05:57:09;;;;;;;0.80;0.77;;;17.40;68.90;;;;;;6212519;23;20487;-87
2023/10/07 05:59:39;;;;;;;6.90;1.40;;;17.50;69.50;;;;;;6212343;23;20167;-88
2023/10/07 06:02:12;;;;;;;2.43;2.23;;;17.50;70.00;;;;;;6213520;23;20167;-89
2023/10/07 06:04:44;;;;;;;1.03;0.90;;;17.50;70.00;;;;;;6213106;23;20159;-86
2023/10/07 06:07:15;;;;;;;0.93;0.90;;;17.50;70.20;;;;;;6211379;23;20175;-88
2023/10/07 06:09:44;;;;;;;2.77;1.67;;;17.50;70.20;;;;;;6211756;23;20496;-87
2023/10/07 06:12:12;;;;;;;2.13;1.17;;;17.50;70.00;;;;;;6213126;23;20253;-86
2023/10/07 06:14:41;;;;;;;1.53;1.27;;;17.50;70.30;;;;;;6213936;23;20199;-89
2023/10/07 06:17:11;;;;;;;2.87;1.37;;;17.50;70.40;;;;;;6213179;23;20163;-88
2023/10/07 06:19:43;;;;;;;2.30;1.17;;;17.60;70.40;;;;;;6209420;23;20164;-88
2023/10/07 06:22:16;;;;;;;26.70;1.27;;;17.50;70.30;;;;;;6207285;23;20601;-89
2023/10/07 06:24:44;;;;;;;2.27;1.77;;;17.60;70.40;;;;;;6209285;23;20480;-85
2023/10/07 06:27:20;;;;;;;0.97;0.97;;;17.60;70.50;;;;;;6213348;23;20175;-86
2023/10/07 06:29:50;;;;;;;1.30;1.03;;;17.60;70.40;;;;;;6211468;23;20246;-88
2023/10/07 06:32:28;;;;;;;1.33;0.90;;;17.70;70.40;;;;;;6214217;23;20202;-90
2023/10/07 06:34:59;;;;;;;1.40;1.30;;;17.70;70.30;;;;;;6213020;23;20235;-86
2023/10/07 06:37:29;;;;;;;1.73;1.63;;;17.70;70.30;;;;;;6191577;23;20160;-87
2023/10/07 06:40:00;;;;;;;3.03;1.63;;;17.80;70.20;;;;;;6212435;23;20191;-86
2023/10/07 06:42:30;;;;;;;2.27;1.27;;;17.80;70.50;;;;;;6214306;23;20191;-87
2023/10/07 06:45:06;;;;;;;2.23;2.03;;;17.90;70.40;;;;;;6212721;23;20342;-89
2023/10/07 06:47:35;;;;;;;1.63;1.53;;;17.90;70.40;;;;;;6186364;23;20227;-89
2023/10/07 06:50:06;;;;;;;8.03;1.43;;;17.90;70.40;;;;;;6185663;23;20163;-88
2023/10/07 06:52:36;;;;;;;3.60;0.80;;;17.90;70.20;;;;;;6212633;23;20225;-88
2023/10/07 06:55:06;;;;;;;3.60;2.00;;;18.00;70.20;;;;;;6213191;23;20178;-88
2023/10/07 06:57:42;;;;;;;1.33;1.20;;;18.00;70.00;;;;;;6214129;23;20210;-86
2023/10/07 07:00:22;;;;;;;1.67;1.33;;;18.00;70.00;;;;;;6213480;23;20191;-88
2023/10/07 07:02:57;;;;;;;1.77;1.60;;;18.10;70.00;;;;;;6213325;23;20155;-86
2023/10/07 07:05:28;;;;;;;1.60;1.03;;;18.20;70.00;;;;;;6212677;23;20166;-85
2023/10/07 07:08:02;;;;;;;2.30;2.10;;;18.20;70.00;;;;;;6211814;23;20214;-85
2023/10/07 07:10:30;;;;;;;1.00;1.00;;;18.20;69.90;;;;;;6208499;23;20166;-89
2023/10/07 07:13:04;;;;;;;3.00;1.20;;;18.30;69.80;;;;;;6209618;23;20178;-86
2023/10/07 07:15:37;;;;;;;1.30;0.90;;;18.30;69.80;;;;;;6209209;23;20705;-86
2023/10/07 07:18:14;;;;;;;1.93;1.77;;;18.30;69.60;;;;;;6210872;23;20159;-88
2023/10/07 07:26:18;;;;;;;4.80;1.40;;;18.50;69.10;;;;;;6214235;23;20162;-87
2023/10/07 07:28:47;;;;;;;3.17;2.10;;;18.50;68.90;;;;;;6210143;23;20222;-85
2023/10/07 07:31:25;;;;;;;2.30;1.33;;;18.60;69.00;;;;;;6210906;23;20514;-85
2023/10/07 07:34:05;;;;;;;2.22;1.20;;;18.60;68.80;;;;;;6207871;23;20399;-86
2023/10/07 07:36:39;;;;;;;4.57;1.90;;;18.70;68.80;;;;;;6212927;23;20250;-87
2023/10/07 07:39:17;;;;;;;2.00;1.67;;;18.70;68.10;;;;;;6210250;23;20238;-86
2023/10/07 07:41:56;;;;;;;4.27;1.43;;;18.70;68.00;;;;;;6212493;23;20238;-88
2023/10/07 07:44:37;;;;;;;2.83;1.57;;;18.70;68.00;;;;;;6213453;23;20163;-87
2023/10/07 07:47:05;;;;;;;2.80;2.30;;;18.80;68.00;;;;;;6208656;23;20155;-87
2023/10/07 07:49:38;;;;;;;0.80;0.80;;;18.80;68.00;;;;;;6213070;23;20191;-89
2023/10/07 07:52:08;;;;;;;1.00;0.93;;;18.90;67.80;;;;;;6212008;23;20214;-86
2023/10/07 07:54:39;;;;;;;3.00;2.23;;;18.90;67.60;;;;;;6212431;23;20171;-87
2023/10/07 07:57:09;;;;;;;3.03;0.80;;;19.00;67.60;;;;;;6187240;23;20175;-85
2023/10/07 07:59:39;;;;;;;2.30;1.23;;;19.10;67.60;;;;;;6212513;23;20171;-87
2023/10/07 08:02:13;;;;;;;1.63;1.53;;;19.10;67.30;;;;;;6213350;23;20159;-87
2023/10/07 08:04:48;;;;;;;1.80;1.40;;;19.20;67.20;;;;;;6186216;23;20181;-87
2023/10/07 08:07:24;;;;;;;6.07;2.37;;;19.30;67.30;;;;;;6212421;23;20167;-87
2023/10/07 08:09:58;;;;;;;8.40;1.23;;;19.40;67.10;;;;;;6212540;23;20191;-86
2023/10/07 08:12:34;;;;;;;1.33;0.80;;;19.40;66.80;;;;;;6189131;23;20209;-86
2023/10/07 08:15:21;;;;;;;3.00;1.83;;;19.40;66.60;;;;;;6214793;23;20167;-86
2023/10/07 08:17:52;;;;;;;1.52;1.42;;;19.50;66.30;;;;;;6215659;23;20237;-88
2023/10/07 08:20:38;;;;;;;1.77;1.60;;;19.50;66.30;;;;;;6226449;23;20147;-88
2023/10/07 08:23:21;;;;;;;1.07;0.97;;;19.60;66.40;;;;;;6240625;23;20159;-87
2023/10/07 08:25:57;;;;;;;4.53;1.50;;;19.70;66.30;;;;;;6240181;23;20186;-86
2023/10/07 08:28:41;;;;;;;1.80;1.33;;;19.70;66.30;;;;;;6241099;23;20150;-87
2023/10/07 08:31:16;;;;;;;1.53;1.33;;;19.90;66.20;;;;;;6239628;23;20395;-86
2023/10/07 08:33:54;;;;;;;3.60;1.35;;;20.00;66.10;;;;;;6216583;23;20159;-86
2023/10/07 08:36:29;;;;;;;6.65;2.15;;;20.00;65.50;;;;;;6239048;23;20185;-88
2023/10/07 08:41:52;;;;;;;1.33;1.10;;;20.20;65.50;;;;;;6195389;23;20244;-87
2023/10/07 08:44:29;;;;;;;1.38;0.98;;;20.20;65.10;;;;;;6188821;23;20594;-85
2023/10/07 08:49:58;;;;;;;2.15;1.10;;;20.50;64.90;;;;;;6183432;23;20195;-88
2023/10/07 08:52:29;;;;;;;2.47;1.20;;;20.50;63.90;;;;;;6184053;23;20172;-87
2023/10/07 08:54:59;;;;;;;1.77;1.38;;;20.60;63.60;;;;;;6183900;23;20163;-87
2023/10/07 08:58:14;;;;;;;1.83;0.60;;;20.70;63.30;;;;;;6183467;23;20172;-86
2023/10/07 09:00:58;;;;;;;1.15;1.10;;;20.80;62.70;;;;;;6155481;23;20578;-89
2023/10/07 09:03:28;;;;;;;2.85;1.13;;;20.90;62.90;;;;;;6180421;23;20160;-87
2023/10/07 09:06:06;;;;;;;2.92;2.53;;;21.00;62.60;;;;;;6184650;23;20160;-87
2023/10/07 09:08:35;;;;;;;0.50;0.50;;;21.00;62.50;;;;;;6181964;23;20514;-88
2023/10/07 09:11:08;;;;;;;6.05;2.05;;;21.20;62.50;;;;;;6182676;23;20570;-87
2023/10/07 09:13:38;;;;;;;3.15;1.30;;;21.30;62.00;;;;;;6182453;23;20176;-85
2023/10/07 09:16:10;;;;;;;1.15;1.08;;;21.30;61.40;;;;;;6180599;23;20211;-85
2023/10/07 09:18:41;;;;;;;2.47;1.33;;;21.30;60.80;;;;;;6181423;23;20214;-84
2023/10/07 09:21:19;;;;;;;1.10;1.00;;;21.40;60.70;;;;;;6182099;23;20172;-87
2023/10/07 09:23:49;;;;;;;2.47;1.00;;;21.50;60.50;;;;;;6182848;23;20163;-87
2023/10/07 09:26:30;;;;;;;1.65;1.20;;;21.60;59.90;;;;;;6180346;23;20174;-86
2023/10/07 09:29:14;;;;;;;3.63;1.38;;;21.60;60.30;;;;;;6179553;23;20171;-85
2023/10/07 09:31:46;;;;;;;1.88;1.33;;;21.70;60.10;;;;;;6181155;23;20534;-85
2023/10/07 09:34:30;;;;;;;2.10;1.38;;;21.80;59.00;;;;;;6181556;23;20234;-86
2023/10/07 09:37:08;;;;;;;0.73;0.50;;;21.90;58.90;;;;;;6153028;23;20158;-88
2023/10/07 09:39:43;;;;;;;2.80;2.38;;;21.90;58.70;;;;;;6180296;23;20500;-88
2023/10/07 09:42:26;;;;;;;9.27;4.00;;;22.00;58.80;;;;;;6154119;23;20180;-87
2023/10/07 09:45:08;;;;;;;4.60;1.23;;;22.10;58.80;;;;;;6152505;23;20498;-88
2023/10/07 09:47:38;;;;;;;1.50;1.30;;;22.20;58.40;;;;;;6153803;23;20559;-87
2023/10/07 09:50:10;;;;;;;1.30;1.20;;;22.30;58.40;;;;;;6152684;23;20533;-89
2023/10/07 09:52:42;;;;;;;3.25;1.50;;;22.40;58.10;;;;;;6153629;23;20168;-88
2023/10/07 09:55:40;;;;;;;1.35;1.10;;;22.40;57.70;;;;;;6125642;23;20993;-87
2023/10/07 09:58:36;;;;;;;1.38;1.13;;;22.50;57.60;;;;;;6152753;23;20203;-87
2023/10/07 10:01:36;;;;;;;1.58;0.85;;;22.60;58.00;;;;;;6151301;23;20202;-88
2023/10/07 10:04:29;;;;;;;0.80;0.77;;;22.80;57.70;;;;;;6152069;23;20630;-88
2023/10/07 10:07:25;;;;;;;1.65;1.15;;;22.80;57.10;;;;;;6150143;23;20164;-84
2023/10/07 10:10:05;;;;;;;0.47;0.45;;;22.90;56.90;;;;;;6123300;23;20235;-84
2023/10/07 10:12:56;;;;;;;0.40;0.40;;;23.00;57.00;;;;;;6150829;23;20483;-85
2023/10/07 10:15:52;;;;;;;1.65;1.55;;;23.10;57.00;;;;;;6152330;23;20649;-84
2023/10/07 10:18:36;;;;;;;12.23;1.52;;;23.10;57.00;;;;;;6149359;23;20164;-90
2023/10/07 10:21:05;;;;;;;3.33;1.27;;;23.20;56.70;;;;;;6151037;23;20550;-85
2023/10/07 10:23:34;;;;;;;12.05;3.17;;;23.20;56.70;;;;;;6150762;23;20174;-86
2023/10/07 10:26:14;;;;;;;1.75;1.08;;;23.30;56.70;;;;;;6151826;23;20539;-85
2023/10/07 10:28:55;;;;;;;5.57;2.50;;;23.30;56.70;;;;;;6150356;23;20171;-84
2023/10/07 10:31:25;;;;;;;1.33;1.23;;;23.40;56.60;;;;;;6149782;23;20184;-84
2023/10/07 10:33:58;;;;;;;2.55;1.65;;;23.50;56.50;;;;;;6149733;23;20172;-84
2023/10/07 10:36:28;;;;;;;2.38;0.60;;;23.50;56.20;;;;;;6123049;23;20172;-85
2023/10/07 10:39:00;;;;;;;0.60;0.60;;;23.60;56.10;;;;;;6151458;23;20173;-85
2023/10/07 10:41:29;;;;;;;1.35;1.05;;;23.70;56.70;;;;;;6150556;23;20255;-85
2023/10/07 10:44:10;;;;;;;1.15;0.88;;;23.70;56.20;;;;;;6149131;23;20532;-88
2023/10/07 10:46:46;;;;;;;1.25;0.95;;;23.80;56.00;;;;;;6099694;23;20160;-85
2023/10/07 10:49:20;;;;;;;1.52;1.13;;;23.90;55.90;;;;;;6141925;23;20208;-85
2023/10/07 10:51:50;;;;;;;2.17;1.42;;;23.90;55.40;;;;;;6124501;23;20212;-83
2023/10/07 10:54:20;;;;;;;1.85;0.77;;;24.00;55.00;;;;;;6120802;23;20167;-85
2023/10/07 10:56:57;;;;;;;1.55;0.95;;;24.00;55.00;;;;;;6145616;23;20172;-85
2023/10/07 10:59:40;;;;;;;1.33;1.02;;;24.00;54.90;;;;;;6150571;23;20192;-86
2023/10/07 11:02:09;;;;;;;7.95;1.80;;;24.10;55.00;;;;;;6151305;23;20157;-85
2023/10/07 11:04:43;;;;;;;1.13;1.02;;;24.10;54.40;;;;;;6150985;23;20480;-87
2023/10/07 11:07:12;;;;;;;1.88;1.13;;;24.20;54.70;;;;;;6152853;23;20161;-88
2023/10/07 11:09:41;;;;;;;0.68;0.50;;;24.30;54.50;;;;;;6149348;23;20469;-87
2023/10/07 11:12:12;;;;;;;4.00;1.63;;;24.30;54.70;;;;;;6151352;23;20228;-86
2023/10/07 11:14:44;;;;;;;2.85;1.25;;;24.50;54.70;;;;;;6150792;23;20180;-82
2023/10/07 11:17:15;;;;;;;1.50;1.40;;;24.50;53.70;;;;;;6151960;23;20161;-85
2023/10/07 11:19:51;;;;;;;0.98;0.80;;;24.50;53.40;;;;;;6151118;23;20168;-85
2023/10/07 11:22:21;;;;;;;8.50;2.00;;;24.60;53.30;;;;;;6152093;23;20261;-87
2023/10/07 11:24:51;;;;;;;0.50;0.50;;;24.60;53.00;;;;;;6152558;23;20192;-86
2023/10/07 11:27:23;;;;;;;0.55;0.55;;;24.70;53.40;;;;;;6153844;23;20164;-86
2023/10/07 11:30:03;;;;;;;1.80;1.13;;;24.80;53.30;;;;;;6154451;23;20168;-86
2023/10/07 11:32:33;;;;;;;1.83;1.13;;;24.80;52.80;;;;;;6154574;23;20552;-87
2023/10/07 11:35:08;;;;;;;3.28;0.98;;;24.90;52.50;;;;;;6152926;23;20503;-84
2023/10/07 11:37:46;;;;;;;1.77;1.08;;;24.90;51.80;;;;;;6151881;23;20157;-84
2023/10/07 11:40:15;;;;;;;1.55;0.77;;;25.00;52.40;;;;;;6144400;23;20213;-87
2023/10/07 11:42:46;;;;;;;0.52;0.52;;;25.00;52.40;;;;;;6210288;23;20163;-85
2023/10/07 11:45:16;;;;;;;3.25;1.10;;;25.10;52.40;;;;;;6211640;23;20174;-85
2023/10/07 11:47:45;;;;;;;1.65;1.23;;;25.10;52.10;;;;;;6210803;23;20262;-84
2023/10/07 11:50:16;;;;;;;1.98;1.70;;;25.20;52.20;;;;;;6214163;23;20171;-86
2023/10/07 11:52:46;;;;;;;0.95;0.73;;;25.20;52.00;;;;;;6186946;23;20267;-87
2023/10/07 11:55:17;;;;;;;3.17;1.13;;;25.30;51.90;;;;;;6214159;23;20167;-85
2023/10/07 11:57:45;;;;;;;1.05;0.95;;;25.40;51.10;;;;;;6215446;23;20163;-86
2023/10/07 12:00:27;;;;;;;3.40;1.05;;;25.40;51.00;;;;;;6213101;23;20471;-86
2023/10/07 12:02:58;;;;;;;3.17;1.48;;;25.50;51.90;;;;;;6217355;23;20163;-87
2023/10/07 12:05:31;;;;;;;0.95;0.65;;;25.50;50.40;;;;;;6216136;23;20163;-85
2023/10/07 12:08:08;;;;;;;0.98;0.93;;;25.60;50.30;;;;;;6214471;23;20209;-88
2023/10/07 12:10:37;;;;;;;0.77;0.70;;;25.50;50.00;;;;;;6188663;23;20159;-85
2023/10/07 12:13:11;;;;;;;3.03;1.38;;;25.60;49.70;;;;;;6214209;23;20171;-86
2023/10/07 12:15:42;;;;;;;0.43;0.38;;;25.70;49.90;;;;;;6214778;23;20158;-88
2023/10/07 12:18:16;;;;;;;1.27;0.88;;;25.70;49.80;;;;;;6188513;23;20457;-88
2023/10/07 12:20:47;;;;;;;1.50;1.30;;;25.80;50.40;;;;;;6215808;23;20159;-86
2023/10/07 12:23:18;;;;;;;0.50;0.50;;;25.80;49.20;;;;;;6214656;23;20156;-88
2023/10/07 12:25:50;;;;;;;0.65;0.65;;;25.90;49.10;;;;;;6213956;23;20159;-88
2023/10/07 12:28:18;;;;;;;1.35;1.10;;;25.90;49.10;;;;;;6212405;23;20163;-86
2023/10/07 12:30:49;;;;;;;2.47;1.50;;;26.00;48.80;;;;;;6213588;23;20242;-87
2023/10/07 12:33:28;;;;;;;0.90;0.70;;;26.00;48.20;;;;;;6214786;23;20159;-87
2023/10/07 12:36:16;;;;;;;1.63;0.80;;;26.00;47.70;;;;;;6214055;23;20613;-85
2023/10/07 12:38:44;;;;;;;0.90;0.80;;;26.10;48.60;;;;;;6213191;23;20238;-85
2023/10/07 12:41:15;;;;;;;1.15;0.60;;;26.10;48.40;;;;;;6213392;23;20199;-86
2023/10/07 12:43:43;;;;;;;0.47;0.47;;;26.20;48.40;;;;;;6212114;23;20174;-87
2023/10/07 12:46:14;;;;;;;1.48;0.73;;;26.20;47.90;;;;;;6213884;23;20189;-86
2023/10/07 12:48:46;;;;;;;1.95;0.77;;;26.20;48.30;;;;;;6213930;23;20159;-87
2023/10/07 12:51:18;;;;;;;1.25;0.85;;;26.30;47.60;;;;;;6214207;23;20553;-88
2023/10/07 12:53:46;;;;;;;1.15;1.02;;;26.30;47.30;;;;;;6213747;23;20183;-89
2023/10/07 12:56:17;;;;;;;0.98;0.88;;;26.30;47.20;;;;;;6215695;23;20170;-89
2023/10/07 12:58:48;;;;;;;0.50;0.45;;;26.30;47.20;;;;;;6214503;23;20156;-90
2023/10/07 13:01:19;;;;;;;0.77;0.73;;;26.40;46.40;;;;;;6214474;23;20171;-84
2023/10/07 13:03:52;;;;;;;11.30;2.28;;;26.40;46.40;;;;;;6211480;23;20229;-83
2023/10/07 13:06:23;;;;;;;11.73;0.63;;;26.50;46.40;;;;;;6214094;23;20198;-83
2023/10/07 13:08:53;;;;;;;4.47;2.28;;;26.40;46.20;;;;;;6212589;23;20202;-83
2023/10/07 13:11:26;;;;;;;1.25;0.80;;;26.50;46.50;;;;;;6212960;23;20199;-82
2023/10/07 13:13:57;;;;;;;1.88;0.95;;;26.50;46.50;;;;;;6213572;23;20234;-84
2023/10/07 13:16:25;;;;;;;4.68;1.08;;;26.50;46.40;;;;;;6212181;23;20610;-84
2023/10/07 13:18:57;;;;;;;0.88;0.88;;;26.60;46.00;;;;;;6210538;23;20174;-82
2023/10/07 13:21:27;;;;;;;0.47;0.30;;;26.70;45.80;;;;;;6213453;23;20242;-83
2023/10/07 13:23:56;;;;;;;2.85;1.30;;;26.70;45.80;;;;;;6211754;23;20171;-83
2023/10/07 13:26:25;;;;;;;2.08;1.20;;;26.70;45.90;;;;;;6211403;23;20167;-83
2023/10/07 13:28:59;;;;;;;1.10;0.82;;;26.80;45.50;;;;;;6211935;23;20202;-89
2023/10/07 13:31:27;;;;;;;0.65;0.55;;;26.70;44.90;;;;;;6211968;23;20671;-81
2023/10/07 13:33:56;;;;;;;1.73;1.27;;;26.80;44.80;;;;;;6211918;23;20174;-81
2023/10/07 13:36:29;;;;;;;1.60;0.93;;;26.80;45.20;;;;;;6214006;23;20257;-87
2023/10/07 13:39:00;;;;;;;10.93;1.05;;;26.80;44.20;;;;;;6212540;23;20159;-85
2023/10/07 13:41:29;;;;;;;0.52;0.40;;;26.80;44.50;;;;;;6212296;23;20202;-82
2023/10/07 13:51:14;;;;;;;0.60;0.60;;;26.70;43.30;;;;;;6189932;23;20587;-82
2023/10/07 13:54:21;;;;;;;1.33;1.00;;;26.50;43.00;;;;;;6213102;23;20172;-82